createdAt,value
2019-05-18T00:00:23.538Z,77.08
2019-05-18T00:02:56.942Z,76.62
2019-05-18T00:05:30.338Z,76.69
2019-05-18T00:08:03.741Z,76.04
2019-05-18T00:10:37.136Z,76.59
2019-05-18T00:13:10.548Z,77.33
2019-05-18T00:15:43.974Z,78.05
2019-05-18T00:18:17.370Z,78.51
2019-05-18T00:20:50.762Z,78.01
2019-05-18T00:23:24.165Z,77.62
2019-05-18T00:25:57.626Z,77.57
2019-05-18T00:28:31.044Z,77.68
2019-05-18T00:31:04.428Z,77.68
2019-05-18T00:33:37.879Z,77.56
2019-05-18T00:36:11.274Z,77.47
2019-05-18T00:38:44.706Z,78.51
2019-05-18T00:41:18.104Z,78.71
2019-05-18T00:43:51.520Z,79.29
2019-05-18T00:46:24.916Z,79.33
2019-05-18T00:48:58.302Z,79.40
2019-05-18T00:51:31.697Z,80.14
2019-05-18T00:54:05.250Z,80.57
2019-05-18T00:56:38.642Z,80.93
2019-05-18T00:59:15.974Z,79.40
2019-05-18T01:01:47.153Z,78.90
2019-05-18T01:04:20.579Z,79.11
2019-05-18T01:06:53.962Z,79.02
2019-05-18T01:09:27.403Z,79.15
2019-05-18T01:12:00.875Z,79.69
2019-05-18T01:14:34.284Z,81.23
2019-05-18T01:17:07.762Z,81.42
2019-05-18T01:19:41.148Z,81.00
2019-05-18T01:22:14.611Z,81.27
2019-05-18T01:24:48.012Z,81.81
2019-05-18T01:27:21.387Z,81.88
2019-05-18T01:29:54.803Z,81.88
2019-05-18T01:32:28.767Z,82.39
2019-05-18T01:35:02.263Z,81.61
2019-05-18T01:37:35.643Z,81.47
2019-05-18T01:40:09.690Z,81.56
2019-05-18T01:42:43.086Z,81.28
2019-05-18T01:45:17.664Z,81.25
2019-05-18T01:47:51.297Z,81.20
2019-05-18T01:50:24.719Z,80.94
2019-05-18T01:52:58.116Z,81.25
2019-05-18T01:55:31.547Z,80.76
2019-05-18T01:58:04.996Z,80.74
2019-05-18T02:00:38.401Z,80.71
2019-05-18T02:03:11.804Z,80.52
2019-05-18T02:05:45.209Z,80.26
2019-05-18T02:08:18.590Z,79.69
2019-05-18T02:10:51.996Z,79.78
2019-05-18T02:13:25.400Z,80.37
2019-05-18T02:15:58.815Z,81.06
2019-05-18T02:18:32.215Z,81.25
2019-05-18T02:21:05.722Z,81.61
2019-05-18T02:23:39.135Z,80.82
2019-05-18T02:26:12.537Z,80.46
2019-05-18T02:28:46.017Z,79.92
2019-05-18T02:31:19.391Z,79.83
2019-05-18T02:33:52.854Z,80.62
2019-05-18T02:36:26.289Z,79.85
2019-05-18T02:38:59.755Z,79.80
2019-05-18T02:41:33.177Z,79.87
2019-05-18T02:44:06.902Z,80.30
2019-05-18T02:46:40.320Z,80.56
2019-05-18T02:49:13.750Z,80.16
2019-05-18T02:51:47.171Z,80.74
2019-05-18T02:54:20.542Z,80.74
2019-05-18T02:56:53.961Z,80.85
2019-05-18T02:59:27.382Z,81.46
2019-05-18T03:02:00.770Z,81.77
2019-05-18T03:04:34.180Z,82.04
2019-05-18T03:07:07.665Z,82.05
2019-05-18T03:09:41.347Z,82.39
2019-05-18T03:12:14.747Z,82.37
2019-05-18T03:14:48.705Z,82.64
2019-05-18T03:17:22.098Z,83.38
2019-05-18T03:19:55.525Z,83.99
2019-05-18T03:22:28.973Z,84.69
2019-05-18T03:25:02.662Z,84.97
2019-05-18T03:27:36.045Z,85.36
2019-05-18T03:30:10.136Z,86.24
2019-05-18T03:32:43.486Z,85.58
2019-05-18T03:35:16.981Z,85.66
2019-05-18T03:37:50.377Z,85.71
2019-05-18T03:40:23.796Z,86.45
2019-05-18T03:42:57.174Z,87.35
2019-05-18T03:45:30.598Z,87.22
2019-05-18T03:48:04.000Z,86.96
2019-05-18T03:50:37.412Z,87.14
2019-05-18T03:53:10.792Z,87.38
2019-05-18T03:55:44.208Z,86.52
2019-05-18T03:58:17.609Z,85.96
2019-05-18T04:00:51.046Z,86.21
2019-05-18T04:03:24.424Z,86.24
2019-05-18T04:05:57.865Z,86.29
2019-05-18T04:08:31.241Z,85.83
2019-05-18T04:11:04.729Z,85.05
2019-05-18T04:13:38.109Z,85.19
2019-05-18T04:16:11.529Z,85.38
2019-05-18T04:18:44.990Z,84.64
2019-05-18T04:21:18.367Z,84.28
2019-05-18T04:23:51.745Z,85.12
2019-05-18T04:26:25.163Z,85.55
2019-05-18T04:28:58.557Z,85.50
2019-05-18T04:31:32.644Z,84.76
2019-05-18T04:34:06.236Z,85.10
2019-05-18T04:36:39.653Z,84.52
2019-05-18T04:39:13.036Z,84.56
2019-05-18T04:41:46.435Z,83.89
2019-05-18T04:44:19.813Z,83.11
2019-05-18T04:46:53.221Z,82.41
2019-05-18T04:49:26.624Z,82.17
2019-05-18T04:52:00.025Z,82.96
2019-05-18T04:54:33.409Z,83.11
2019-05-18T04:57:06.858Z,83.60
2019-05-18T04:59:40.210Z,83.15
2019-05-18T05:02:13.621Z,83.08
2019-05-18T05:04:46.994Z,83.19
2019-05-18T05:07:20.474Z,83.46
2019-05-18T05:09:53.902Z,82.89
2019-05-18T05:12:27.248Z,83.13
2019-05-18T05:15:00.654Z,82.64
2019-05-18T05:17:34.074Z,82.43
2019-05-18T05:20:19.155Z,81.70
2019-05-18T05:22:42.841Z,82.04
2019-05-18T05:25:16.234Z,81.95
2019-05-18T05:27:49.654Z,81.57
2019-05-18T05:30:23.035Z,81.07
2019-05-18T05:32:56.514Z,81.58
2019-05-18T05:35:29.984Z,81.21
2019-05-18T05:38:03.496Z,80.36
2019-05-18T05:40:36.938Z,79.62
2019-05-18T05:43:10.360Z,79.69
2019-05-18T05:45:43.765Z,80.08
2019-05-18T05:48:17.313Z,80.30
2019-05-18T05:50:50.651Z,79.75
2019-05-18T05:53:24.054Z,80.34
2019-05-18T05:55:57.456Z,79.75
2019-05-18T05:58:30.869Z,81.74
2019-05-18T06:01:04.284Z,82.14
2019-05-18T06:03:37.694Z,82.21
2019-05-18T06:06:11.087Z,81.21
2019-05-18T06:08:44.557Z,79.73
2019-05-18T06:11:18.027Z,78.94
2019-05-18T06:13:51.479Z,79.66
2019-05-18T06:16:24.859Z,80.08
2019-05-18T06:18:58.268Z,79.68
2019-05-18T06:21:32.141Z,80.41
2019-05-18T06:24:05.701Z,80.32
2019-05-18T06:26:39.101Z,78.37
2019-05-18T06:29:12.527Z,78.09
2019-05-18T06:31:45.936Z,70.29
2019-05-18T06:34:19.344Z,70.29
2019-05-18T06:36:55.836Z,68.76
2019-05-18T06:39:28.281Z,63.68
2019-05-18T06:42:01.686Z,63.01
2019-05-18T06:44:35.077Z,64.80
2019-05-18T06:47:08.473Z,64.79
2019-05-18T06:49:41.897Z,58.95
2019-05-18T06:52:15.297Z,57.63
2019-05-18T06:54:48.787Z,54.82
2019-05-18T06:57:25.043Z,53.95
2019-05-18T06:59:59.415Z,61.09
2019-05-18T07:02:32.822Z,59.82
2019-05-18T07:05:07.218Z,59.06
2019-05-18T07:07:40.945Z,62.36
2019-05-18T07:10:14.461Z,63.97
2019-05-18T07:12:47.856Z,65.89
2019-05-18T07:15:21.553Z,65.62
2019-05-18T07:17:54.969Z,64.43
2019-05-18T07:20:28.403Z,65.34
2019-05-18T07:23:01.788Z,65.14
2019-05-18T07:25:35.207Z,65.79
2019-05-18T07:28:08.717Z,66.42
2019-05-18T07:30:42.118Z,66.41
2019-05-18T07:33:15.544Z,67.29
2019-05-18T07:35:48.979Z,67.15
2019-05-18T07:38:22.372Z,66.61
2019-05-18T07:40:55.873Z,67.53
2019-05-18T07:43:29.284Z,68.00
2019-05-18T07:46:02.713Z,67.79
2019-05-18T07:48:36.900Z,68.65
2019-05-18T07:51:10.515Z,69.22
2019-05-18T07:53:44.286Z,69.78
2019-05-18T07:56:18.006Z,70.25
2019-05-18T07:58:51.525Z,71.67
2019-05-18T08:01:24.924Z,71.71
2019-05-18T08:03:58.334Z,72.76
2019-05-18T08:06:31.724Z,72.31
2019-05-18T08:09:07.423Z,72.29
2019-05-18T08:11:40.766Z,72.19
2019-05-18T08:14:14.211Z,71.69
2019-05-18T08:16:47.603Z,71.77
2019-05-18T08:19:21.047Z,70.27
2019-05-18T08:21:54.462Z,71.86
2019-05-18T08:24:28.667Z,71.36
2019-05-18T08:27:02.544Z,70.87
2019-05-18T08:29:36.119Z,70.45
2019-05-18T08:32:09.515Z,71.61
2019-05-18T08:34:43.047Z,71.29
2019-05-18T08:37:16.500Z,70.54
2019-05-18T08:39:49.947Z,72.54
2019-05-18T08:42:23.356Z,70.86
2019-05-18T08:44:56.762Z,68.58
2019-05-18T08:47:30.148Z,68.21
2019-05-18T08:50:05.417Z,66.23
2019-05-18T08:52:38.809Z,66.25
2019-05-18T08:55:12.352Z,64.93
2019-05-18T08:57:45.734Z,66.22
2019-05-18T09:00:19.418Z,66.49
2019-05-18T09:02:52.817Z,65.34
2019-05-18T09:05:26.226Z,64.69
2019-05-18T09:07:59.643Z,64.09
2019-05-18T09:10:33.147Z,62.39
2019-05-18T09:13:06.694Z,63.69
2019-05-18T09:15:40.130Z,62.45
2019-05-18T09:18:13.554Z,61.79
2019-05-18T09:20:46.963Z,61.41
2019-05-18T09:23:20.358Z,61.33
2019-05-18T09:25:53.842Z,59.42
2019-05-18T09:28:27.320Z,60.75
2019-05-18T09:31:00.790Z,59.99
2019-05-18T09:33:34.179Z,58.03
2019-05-18T09:36:07.654Z,58.74
2019-05-18T09:38:41.047Z,58.35
2019-05-18T09:41:14.528Z,59.84
2019-05-18T09:43:47.912Z,59.23
2019-05-18T09:46:21.308Z,57.83
2019-05-18T09:48:54.695Z,58.23
2019-05-18T09:51:28.139Z,58.96
2019-05-18T09:54:01.614Z,59.21
2019-05-18T09:56:35.016Z,60.57
2019-05-18T09:59:08.507Z,59.77
2019-05-18T10:01:41.928Z,61.05
2019-05-18T10:04:15.322Z,61.00
2019-05-18T10:06:48.733Z,61.44
2019-05-18T10:09:22.139Z,59.48
2019-05-18T10:11:55.571Z,60.03
2019-05-18T10:14:28.963Z,59.12
2019-05-18T10:17:02.489Z,58.69
2019-05-18T10:19:35.924Z,59.01
2019-05-18T10:22:09.399Z,57.61
2019-05-18T10:24:42.730Z,55.99
2019-05-18T10:27:16.217Z,56.11
2019-05-18T10:29:49.622Z,56.16
2019-05-18T10:32:23.152Z,56.56
2019-05-18T10:34:56.526Z,56.10
2019-05-18T10:37:30.327Z,54.01
2019-05-18T10:40:07.588Z,54.02
2019-05-18T10:42:41.068Z,53.06
2019-05-18T10:45:14.805Z,52.64
2019-05-18T10:47:48.215Z,53.74
2019-05-18T10:50:21.608Z,52.11
2019-05-18T10:52:55.026Z,52.15
2019-05-18T10:55:28.458Z,53.21
2019-05-18T10:58:01.856Z,50.66
2019-05-18T11:00:35.332Z,51.35
2019-05-18T11:03:08.742Z,50.84
2019-05-18T11:05:42.139Z,51.36
2019-05-18T11:08:15.617Z,49.01
2019-05-18T11:10:49.050Z,50.00
2019-05-18T11:13:22.458Z,47.39
2019-05-18T11:15:55.843Z,47.29
2019-05-18T11:18:30.376Z,46.48
2019-05-18T11:21:04.017Z,49.81
2019-05-18T11:23:43.713Z,48.66
2019-05-18T11:26:12.666Z,48.45
2019-05-18T11:28:46.131Z,48.50
2019-05-18T11:31:19.533Z,49.03
2019-05-18T11:33:52.943Z,48.78
2019-05-18T11:36:26.410Z,46.86
2019-05-18T11:38:59.829Z,46.25
2019-05-18T11:41:33.240Z,46.00
2019-05-18T11:44:07.089Z,47.70
2019-05-18T11:46:40.564Z,46.49
2019-05-18T11:49:14.006Z,46.59
2019-05-18T11:51:47.468Z,47.97
2019-05-18T11:54:20.981Z,46.60
2019-05-18T11:56:54.404Z,47.03
2019-05-18T11:59:27.790Z,47.56
2019-05-18T12:02:01.194Z,46.33
2019-05-18T12:04:34.602Z,46.81
2019-05-18T12:07:08.082Z,47.85
2019-05-18T12:09:41.449Z,47.06
2019-05-18T12:12:14.870Z,48.35
2019-05-18T12:14:48.272Z,50.35
2019-05-18T12:17:21.662Z,51.63
2019-05-18T12:19:55.070Z,54.08
2019-05-18T12:22:28.458Z,56.07
2019-05-18T12:25:01.867Z,56.84
2019-05-18T12:27:35.258Z,57.24
2019-05-18T12:30:13.846Z,58.15
2019-05-18T12:32:47.279Z,57.08
2019-05-18T12:35:21.798Z,59.21
2019-05-18T12:37:55.241Z,59.75
2019-05-18T12:40:28.738Z,60.70
2019-05-18T12:43:02.128Z,64.54
2019-05-18T12:45:35.640Z,70.42
2019-05-18T12:48:09.208Z,74.29
2019-05-18T12:50:42.700Z,77.57
2019-05-18T12:53:17.794Z,78.15
2019-05-18T12:55:51.298Z,78.86
2019-05-18T12:58:24.699Z,78.17
2019-05-18T13:00:58.102Z,75.07
2019-05-18T13:03:31.496Z,66.96
2019-05-18T13:06:06.347Z,67.55
2019-05-18T13:08:39.838Z,64.27
2019-05-18T13:11:13.288Z,63.34
2019-05-18T13:13:46.723Z,62.08
2019-05-18T13:16:20.185Z,63.50
2019-05-18T13:18:53.598Z,61.49
2019-05-18T13:21:27.026Z,62.75
2019-05-18T13:24:00.459Z,65.29
2019-05-18T13:26:33.958Z,65.58
2019-05-18T13:29:07.377Z,67.86
2019-05-18T13:31:40.785Z,70.52
2019-05-18T13:34:14.247Z,68.77
2019-05-18T13:36:47.666Z,67.57
2019-05-18T13:39:21.069Z,67.88
2019-05-18T13:41:54.490Z,68.70
2019-05-18T13:44:27.896Z,71.24
2019-05-18T13:47:01.318Z,64.72
2019-05-18T13:49:34.821Z,67.38
2019-05-18T13:52:08.307Z,68.22
2019-05-18T13:54:41.742Z,68.23
2019-05-18T13:57:15.136Z,68.34
2019-05-18T13:59:48.653Z,65.77
2019-05-18T14:02:22.036Z,64.03
2019-05-18T14:04:55.453Z,60.12
2019-05-18T14:07:28.850Z,60.43
2019-05-18T14:10:02.249Z,62.28
2019-05-18T14:12:35.716Z,59.73
2019-05-18T14:15:10.193Z,59.19
2019-05-18T14:17:43.604Z,58.24
2019-05-18T14:20:19.079Z,56.27
2019-05-18T14:22:52.491Z,57.20
2019-05-18T14:25:25.941Z,57.36
2019-05-18T14:27:59.329Z,57.15
2019-05-18T14:30:32.836Z,61.66
2019-05-18T14:33:06.311Z,62.15
2019-05-18T14:35:39.730Z,62.42
2019-05-18T14:38:13.207Z,62.82
2019-05-18T14:40:46.594Z,63.68
2019-05-18T14:43:20.066Z,67.03
2019-05-18T14:45:53.553Z,66.47
2019-05-18T14:48:26.939Z,65.41
2019-05-18T14:51:00.361Z,66.33
2019-05-18T14:53:33.779Z,64.90
2019-05-18T14:56:07.402Z,65.88
2019-05-18T14:58:40.818Z,65.29
2019-05-18T15:01:14.214Z,65.65
2019-05-18T15:03:48.022Z,62.88
2019-05-18T15:06:21.509Z,61.61
2019-05-18T15:08:54.936Z,61.46
2019-05-18T15:11:28.381Z,61.57
2019-05-18T15:14:01.806Z,62.25
2019-05-18T15:16:35.302Z,63.02
2019-05-18T15:19:08.764Z,62.31
2019-05-18T15:21:42.329Z,63.42
2019-05-18T15:24:17.501Z,61.74
2019-05-18T15:26:50.998Z,61.45
2019-05-18T15:29:24.405Z,63.21
2019-05-18T15:31:57.893Z,61.44
2019-05-18T15:34:31.287Z,63.07
2019-05-18T15:37:04.717Z,64.37
2019-05-18T15:39:38.114Z,63.99
2019-05-18T15:42:11.534Z,63.64
2019-05-18T15:44:44.907Z,61.77
2019-05-18T15:47:18.400Z,55.82
2019-05-18T15:49:51.811Z,51.58
2019-05-18T15:52:25.229Z,45.87
2019-05-18T15:54:58.643Z,45.71
2019-05-18T15:57:32.131Z,42.91
2019-05-18T16:00:08.180Z,42.42
2019-05-18T16:02:41.679Z,46.92
2019-05-18T16:05:15.406Z,51.11
2019-05-18T16:07:48.806Z,47.76
2019-05-18T16:10:22.423Z,46.36
2019-05-18T16:12:55.835Z,42.83
2019-05-18T16:15:29.294Z,41.13
2019-05-18T16:18:02.768Z,45.25
2019-05-18T16:20:36.153Z,46.25
2019-05-18T16:23:09.569Z,45.94
2019-05-18T16:25:43.212Z,43.89
2019-05-18T16:28:16.713Z,43.82
2019-05-18T16:30:50.181Z,45.27
2019-05-18T16:33:23.642Z,44.32
2019-05-18T16:35:57.037Z,46.19
2019-05-18T16:38:30.452Z,45.62
2019-05-18T16:41:03.910Z,45.65
2019-05-18T16:43:37.333Z,47.34
2019-05-18T16:46:10.740Z,49.69
2019-05-18T16:48:44.214Z,51.34
2019-05-18T16:51:17.607Z,52.81
2019-05-18T16:53:51.397Z,53.16
2019-05-18T16:56:34.815Z,55.56
2019-05-18T16:59:00.672Z,57.09
2019-05-18T17:01:34.211Z,57.73
2019-05-18T17:04:07.648Z,58.52
2019-05-18T17:06:41.045Z,57.33
2019-05-18T17:09:14.533Z,57.33
2019-05-18T17:11:48.287Z,57.17
2019-05-18T17:14:21.726Z,56.14
2019-05-18T17:16:55.119Z,56.67
2019-05-18T17:19:28.552Z,56.85
2019-05-18T17:22:01.955Z,57.87
2019-05-18T17:24:35.366Z,59.07
2019-05-18T17:27:08.758Z,59.07
2019-05-18T17:29:42.197Z,59.91
2019-05-18T17:32:15.597Z,60.45
2019-05-18T17:34:49.018Z,60.95
2019-05-18T17:37:22.437Z,60.38
2019-05-18T17:39:55.855Z,60.21
2019-05-18T17:42:29.270Z,61.06
2019-05-18T17:45:02.670Z,61.63
2019-05-18T17:47:36.125Z,64.27
2019-05-18T17:50:10.186Z,66.62
2019-05-18T17:52:43.689Z,68.23
2019-05-18T17:55:17.349Z,70.19
2019-05-18T17:57:50.760Z,73.93
2019-05-18T18:00:24.322Z,73.93
2019-05-18T18:02:57.753Z,74.23
2019-05-18T18:05:31.181Z,75.31
2019-05-18T18:08:04.639Z,75.87
2019-05-18T18:10:38.073Z,74.85
2019-05-18T18:13:11.473Z,72.64
2019-05-18T18:15:45.032Z,72.64
2019-05-18T18:18:18.524Z,73.14
2019-05-18T18:20:52.002Z,74.24
2019-05-18T18:23:25.446Z,73.25
2019-05-18T18:25:58.908Z,76.13
2019-05-18T18:28:32.280Z,78.19
2019-05-18T18:31:05.783Z,80.14
2019-05-18T18:33:39.217Z,80.35
2019-05-18T18:36:12.678Z,81.33
2019-05-18T18:38:46.257Z,83.21
2019-05-18T18:41:19.696Z,83.79
2019-05-18T18:43:53.100Z,84.27
2019-05-18T18:46:26.564Z,83.88
2019-05-18T18:48:59.981Z,84.98
2019-05-18T18:51:33.507Z,87.66
2019-05-18T18:54:06.932Z,88.15
2019-05-18T18:56:40.411Z,88.26
2019-05-18T18:59:13.889Z,89.36
2019-05-18T19:01:47.307Z,90.14
2019-05-18T19:04:20.707Z,88.25
2019-05-18T19:06:54.119Z,88.81
2019-05-18T19:09:27.531Z,90.88
2019-05-18T19:12:00.970Z,91.71
2019-05-18T19:14:34.434Z,92.38
2019-05-18T19:17:07.876Z,92.88
2019-05-18T19:19:41.268Z,92.64
2019-05-18T19:22:14.715Z,92.83
2019-05-18T19:24:48.109Z,92.02
2019-05-18T19:27:21.534Z,90.58
2019-05-18T19:29:54.946Z,92.31
2019-05-18T19:32:28.387Z,94.60
2019-05-18T19:35:01.800Z,92.25
2019-05-18T19:37:35.223Z,93.53
2019-05-18T19:40:10.294Z,93.97
2019-05-18T19:42:43.743Z,94.55
2019-05-18T19:45:17.230Z,95.08
2019-05-18T19:47:50.654Z,95.19
2019-05-18T19:50:24.047Z,96.35
2019-05-18T19:52:57.551Z,95.30
2019-05-18T19:55:30.957Z,95.65
2019-05-18T19:58:08.756Z,95.04
2019-05-18T20:00:39.582Z,94.45
2019-05-18T20:03:13.028Z,94.43
2019-05-18T20:05:46.411Z,95.52
2019-05-18T20:08:19.818Z,96.04
2019-05-18T20:10:53.251Z,96.62
2019-05-18T20:13:26.651Z,97.25
2019-05-18T20:16:00.046Z,97.70
2019-05-18T20:18:33.448Z,98.10
2019-05-18T20:21:06.892Z,98.48
2019-05-18T20:23:40.301Z,98.46
2019-05-18T20:26:13.699Z,98.27
2019-05-18T20:28:47.144Z,98.25
2019-05-18T20:31:20.615Z,98.66
2019-05-18T20:33:54.057Z,98.83
2019-05-18T20:36:27.481Z,98.72
2019-05-18T20:39:00.910Z,98.53
2019-05-18T20:41:34.383Z,98.32
2019-05-18T20:44:07.906Z,98.17
2019-05-18T20:46:41.326Z,97.73
2019-05-18T20:49:14.720Z,97.68
2019-05-18T20:51:48.209Z,97.87
2019-05-18T20:54:21.684Z,97.50
2019-05-18T20:56:55.114Z,97.81
2019-05-18T20:59:28.523Z,97.94
2019-05-18T21:02:01.972Z,98.41
2019-05-18T21:04:35.388Z,98.07
2019-05-18T21:07:08.888Z,97.76
2019-05-18T21:09:42.263Z,97.93
2019-05-18T21:12:15.678Z,97.50
2019-05-18T21:14:49.085Z,97.79
2019-05-18T21:17:22.623Z,97.68
2019-05-18T21:19:56.012Z,98.06
2019-05-18T21:22:29.427Z,98.68
2019-05-18T21:25:02.978Z,98.84
2019-05-18T21:27:36.395Z,98.95
2019-05-18T21:30:10.064Z,98.85
2019-05-18T21:32:43.494Z,98.87
2019-05-18T21:35:16.872Z,99.12
2019-05-18T21:37:50.290Z,99.06
2019-05-18T21:40:26.194Z,98.33
2019-05-18T21:42:58.862Z,98.04
2019-05-18T21:45:32.353Z,98.15
2019-05-18T21:48:05.836Z,98.05
2019-05-18T21:50:39.251Z,97.17
2019-05-18T21:53:12.688Z,97.52
2019-05-18T21:55:46.083Z,96.98
2019-05-18T21:58:19.505Z,97.09
2019-05-18T22:00:53.030Z,96.47
2019-05-18T22:03:26.711Z,96.68
2019-05-18T22:06:00.105Z,96.31
2019-05-18T22:08:33.516Z,96.56
2019-05-18T22:11:07.002Z,96.63
2019-05-18T22:13:40.427Z,96.57
2019-05-18T22:16:13.851Z,96.74
2019-05-18T22:18:47.280Z,97.03
2019-05-18T22:21:20.697Z,96.65
2019-05-18T22:23:54.123Z,97.12
2019-05-18T22:26:27.552Z,98.10
2019-05-18T22:29:00.972Z,98.05
2019-05-18T22:31:34.403Z,98.47
2019-05-18T22:34:07.821Z,98.96
2019-05-18T22:36:41.241Z,98.83
2019-05-18T22:39:14.669Z,98.27
2019-05-18T22:41:48.090Z,97.68
2019-05-18T22:44:21.523Z,97.54
2019-05-18T22:46:54.939Z,97.66
2019-05-18T22:49:28.359Z,98.01
2019-05-18T22:52:01.756Z,98.03
2019-05-18T22:54:35.156Z,98.12
2019-05-18T22:57:08.566Z,97.98
2019-05-18T22:59:41.998Z,98.47
2019-05-18T23:02:15.393Z,98.40
2019-05-18T23:04:48.816Z,98.16
2019-05-18T23:07:22.227Z,97.92
2019-05-18T23:09:55.632Z,97.30
2019-05-18T23:12:29.144Z,97.53
2019-05-18T23:15:02.532Z,96.98
2019-05-18T23:17:35.912Z,97.37
2019-05-18T23:20:10.911Z,97.49
2019-05-18T23:22:44.383Z,97.78
2019-05-18T23:25:17.903Z,97.30
2019-05-18T23:27:51.288Z,96.96
2019-05-18T23:30:25.561Z,97.27
2019-05-18T23:32:58.993Z,97.71
2019-05-18T23:35:32.831Z,98.20
2019-05-18T23:38:06.269Z,98.66
2019-05-18T23:40:39.684Z,98.98
2019-05-18T23:43:13.107Z,99.20
2019-05-18T23:45:46.519Z,99.47
2019-05-18T23:48:19.929Z,99.94
2019-05-18T23:50:53.401Z,100.00
2019-05-18T23:53:26.809Z,100.00
2019-05-18T23:56:00.267Z,100.00
2019-05-18T23:58:33.644Z,100.00
